Time;durP1;ratioP1;P1;durP2;ratioP2;P2;SDS_P1;SDS_P2;PMS_P1;PMS_P2;Temp;Humidity;BMP_temperature;BMP_pressure;BME280_temperature;BME280_humidity;BME280_pressure;Samples;Min_cycle;Max_cycle;Signal;HPM_P1;HPM_P2
2021/02/26 00:03:55;;;;;;;0.50;0.50;;;;;;;10.96;41.95;98034.06;299395;205;63022;-55
2021/02/26 00:08:56;;;;;;;0.50;0.50;;;;;;;10.97;41.75;98041.13;299395;210;63004;-54
2021/02/26 00:13:58;;;;;;;0.60;0.60;;;;;;;10.94;41.24;98036.22;299395;208;63009;-57
2021/02/26 00:18:59;;;;;;;0.50;0.50;;;;;;;10.71;42.27;98049.19;299395;312;63005;-56
2021/02/26 00:24:00;;;;;;;0.50;0.50;;;;;;;10.53;43.08;98046.94;299395;241;63008;-55
2021/02/26 00:29:01;;;;;;;0.50;0.50;;;;;;;10.49;42.85;98045.81;299395;235;63004;-56
2021/02/26 00:34:05;;;;;;;0.50;0.50;;;;;;;10.46;42.18;98051.78;299395;211;63021;-55
2021/02/26 00:39:06;;;;;;;0.60;0.60;;;;;;;10.43;43.18;98052.31;299395;323;63004;-56
2021/02/26 00:44:08;;;;;;;0.50;0.50;;;;;;;10.29;43.15;98045.72;299395;208;63018;-58
2021/02/26 00:49:09;;;;;;;0.50;0.50;;;;;;;10.26;43.10;98040.81;299395;196;63012;-56
2021/02/26 00:54:11;;;;;;;0.50;0.50;;;;;;;10.35;42.48;98050.13;299395;197;63019;-55
2021/02/26 00:59:12;;;;;;;0.50;0.50;;;;;;;10.37;42.19;98037.09;299395;266;63004;-55
2021/02/26 01:04:13;;;;;;;0.50;0.50;;;;;;;10.38;41.69;98036.84;299395;259;63005;-55
2021/02/26 01:09:14;;;;;;;0.50;0.50;;;;;;;10.40;42.05;98031.12;299395;254;63005;-56
2021/02/26 01:14:15;;;;;;;0.50;0.50;;;;;;;10.41;41.38;98028.16;299395;203;63018;-54
2021/02/26 01:19:19;;;;;;;0.50;0.50;;;;;;;10.31;41.29;98022.69;299395;235;63005;-57
2021/02/26 01:24:20;;;;;;;0.60;0.60;;;;;;;10.28;41.45;98027.81;299417;308;63021;-54
2021/02/26 01:29:21;;;;;;;0.50;0.50;;;;;;;10.19;41.41;98035.63;299395;345;63004;-55
2021/02/26 01:34:26;;;;;;;0.60;0.60;;;;;;;10.16;41.52;98043.44;299395;216;63009;-55
2021/02/26 01:39:27;;;;;;;0.60;0.60;;;;;;;10.15;41.28;98033.66;299417;214;63005;-56
2021/02/26 01:44:28;;;;;;;0.50;0.50;;;;;;;10.20;41.05;98022.88;299395;251;63009;-55
2021/02/26 01:49:28;;;;;;;0.50;0.50;;;;;;;10.30;40.09;98020.25;299395;257;63005;-56
2021/02/26 01:54:31;;;;;;;0.50;0.50;;;;;;;10.47;39.93;98020.03;299395;276;63009;-57
2021/02/26 01:59:32;;;;;;;0.50;0.50;;;;;;;10.63;39.20;98010.88;299395;210;63004;-53
2021/02/26 02:04:33;;;;;;;0.50;0.50;;;;;;;10.61;39.20;98011.16;299395;196;63009;-56
2021/02/26 02:09:34;;;;;;;0.50;0.50;;;;;;;10.56;39.32;98016.56;299395;209;63005;-55
2021/02/26 02:14:36;;;;;;;0.50;0.50;;;;;;;10.50;39.33;98009.47;299395;220;63009;-57
2021/02/26 02:19:43;;;;;;;0.50;0.50;;;;;;;10.46;39.44;98002.94;299395;251;63008;-55
2021/02/26 02:24:46;;;;;;;0.50;0.50;;;;;;;10.41;39.80;98006.44;299395;202;63009;-55
2021/02/26 02:29:47;;;;;;;0.50;0.50;;;;;;;10.29;40.14;98010.47;299395;218;63004;-56
2021/02/26 02:34:48;;;;;;;0.50;0.50;;;;;;;10.33;40.33;98003.44;299395;288;63005;-56
2021/02/26 02:39:49;;;;;;;0.50;0.50;;;;;;;10.31;40.14;97994.75;299395;229;63005;-56
2021/02/26 02:44:50;;;;;;;0.50;0.50;;;;;;;10.17;40.53;97993.53;299395;235;63008;-56
2021/02/26 02:49:53;;;;;;;0.50;0.50;;;;;;;10.04;41.11;97995.66;299395;219;63004;-55
2021/02/26 02:54:54;;;;;;;0.50;0.50;;;;;;;9.94;41.75;97995.59;299395;236;63009;-55
2021/02/26 02:59:55;;;;;;;0.50;0.50;;;;;;;9.91;41.98;97987.16;299395;203;63004;-56
2021/02/26 03:04:56;;;;;;;0.50;0.50;;;;;;;9.95;41.16;97991.00;299395;327;63009;-56
2021/02/26 03:09:56;;;;;;;0.60;0.60;;;;;;;9.87;41.75;97988.75;299395;207;63005;-56
2021/02/26 03:14:57;;;;;;;0.50;0.50;;;;;;;9.86;41.55;97985.22;299395;225;63008;-56
2021/02/26 03:19:58;;;;;;;0.60;0.60;;;;;;;9.81;42.16;97990.63;299395;257;63004;-56
2021/02/26 03:24:59;;;;;;;0.60;0.60;;;;;;;9.75;42.18;97984.34;299395;282;63009;-56
2021/02/26 03:30:00;;;;;;;0.50;0.50;;;;;;;9.77;41.75;97978.66;299395;208;63004;-56
2021/02/26 03:35:02;;;;;;;0.50;0.50;;;;;;;9.81;42.25;97985.19;299394;253;64009;-55
2021/02/26 03:40:07;;;;;;;0.60;0.60;;;;;;;9.89;41.74;97994.75;299395;214;63005;-56
2021/02/26 03:45:15;;;;;;;0.50;0.50;;;;;;;9.96;40.85;97984.50;299395;209;63008;-56
2021/02/26 03:50:17;;;;;;;0.50;0.50;;;;;;;9.97;40.82;97994.25;299395;236;63004;-55
2021/02/26 03:55:21;;;;;;;0.50;0.50;;;;;;;9.92;41.48;97999.66;299395;289;63009;-55
2021/02/26 04:00:25;;;;;;;0.50;0.50;;;;;;;9.96;41.00;97998.88;299395;217;63005;-55
2021/02/26 04:05:28;;;;;;;0.60;0.60;;;;;;;10.04;40.37;97994.84;299417;223;63009;-56
2021/02/26 04:10:30;;;;;;;0.50;0.50;;;;;;;10.05;40.93;97997.28;299395;229;63005;-57
2021/02/26 04:15:31;;;;;;;0.50;0.50;;;;;;;9.98;41.17;97983.16;299395;301;63009;-55
2021/02/26 04:20:32;;;;;;;0.50;0.50;;;;;;;9.93;41.04;97988.53;299395;204;63004;-55
2021/02/26 04:25:33;;;;;;;0.50;0.50;;;;;;;9.95;41.24;97985.56;299395;236;63009;-56
2021/02/26 04:30:34;;;;;;;0.50;0.50;;;;;;;9.87;41.13;97995.00;299395;202;63005;-55
2021/02/26 04:35:35;;;;;;;0.50;0.50;;;;;;;9.88;41.17;97990.41;299395;244;63009;-55
2021/02/26 04:40:36;;;;;;;0.50;0.50;;;;;;;9.85;41.23;97990.91;299395;211;63005;-55
2021/02/26 04:45:40;;;;;;;0.50;0.50;;;;;;;9.80;41.48;97996.31;299394;241;63999;-57
2021/02/26 04:50:41;;;;;;;0.50;0.50;;;;;;;9.77;41.31;97984.09;299417;214;63004;-54
2021/02/26 04:55:42;;;;;;;0.50;0.50;;;;;;;9.76;41.26;97977.03;299395;237;63009;-55
2021/02/26 05:00:43;;;;;;;0.50;0.50;;;;;;;9.79;41.46;97981.13;299395;202;63005;-55
2021/02/26 05:05:43;;;;;;;0.50;0.50;;;;;;;9.81;41.15;97978.97;299395;206;63009;-55
2021/02/26 05:10:45;;;;;;;0.50;0.50;;;;;;;9.81;41.36;97974.34;299395;213;63005;-55
2021/02/26 05:15:49;;;;;;;0.50;0.50;;;;;;;9.77;41.83;97975.94;299395;235;63009;-53
2021/02/26 05:20:50;;;;;;;;;;;;;;;9.64;42.62;97979.13;299996;982;6000;-55
2021/02/26 05:25:51;;;;;;;0.50;0.50;;;;;;;9.64;42.66;97981.84;299400;227;63005;-55
2021/02/26 05:30:52;;;;;;;0.50;0.50;;;;;;;9.59;43.07;97989.94;299395;213;63009;-54
2021/02/26 05:35:53;;;;;;;0.50;0.50;;;;;;;9.57;43.36;97986.66;299395;235;63004;-55
2021/02/26 05:40:57;;;;;;;0.50;0.50;;;;;;;9.45;44.80;98002.28;299395;203;63009;-56
2021/02/26 05:45:58;;;;;;;0.50;0.50;;;;;;;9.23;46.34;98016.72;299417;234;63005;-55
2021/02/26 05:50:59;;;;;;;0.50;0.50;;;;;;;9.04;47.10;98023.56;299395;369;63004;-56
2021/02/26 05:56:01;;;;;;;0.50;0.50;;;;;;;8.89;47.35;98020.72;299395;206;63004;-55
2021/02/26 06:01:27;;;;;;;0.50;0.50;;;;;;;8.91;46.85;98010.44;299395;278;63009;-56
2021/02/26 06:06:45;;;;;;;0.50;0.50;;;;;;;9.13;45.44;98016.63;299395;199;63005;-56
2021/02/26 06:11:48;;;;;;;0.60;0.60;;;;;;;9.34;45.39;98013.03;299395;233;63009;-55
2021/02/26 06:16:50;;;;;;;0.50;0.50;;;;;;;9.50;44.42;98015.84;299417;198;63005;-55
2021/02/26 06:22:20;;;;;;;0.50;0.50;;;;;;;9.58;44.65;98015.38;299395;202;63009;-55
2021/02/26 06:27:21;;;;;;;0.50;0.50;;;;;;;9.58;44.86;98010.78;299395;251;63004;-55
2021/02/26 06:32:31;;;;;;;0.50;0.50;;;;;;;9.56;44.84;98009.41;299395;212;63009;-56
2021/02/26 06:37:41;;;;;;;0.50;0.50;;;;;;;9.47;45.19;98016.38;299395;204;63005;-56
2021/02/26 06:43:10;;;;;;;0.50;0.50;;;;;;;9.49;45.10;98020.47;299395;218;63009;-56
2021/02/26 06:48:17;;;;;;;0.50;0.50;;;;;;;9.54;45.70;98019.69;299395;218;63009;-55
2021/02/26 06:53:19;;;;;;;0.50;0.50;;;;;;;9.61;45.80;98023.81;299395;246;63005;-56
2021/02/26 06:58:22;;;;;;;0.50;0.50;;;;;;;9.77;46.38;98022.03;299395;304;63008;-56
2021/02/26 07:03:23;;;;;;;0.60;0.60;;;;;;;9.89;45.41;98030.81;299395;210;63004;-55
2021/02/26 07:08:28;;;;;;;0.50;0.50;;;;;;;9.84;46.33;98033.47;299395;231;63009;-56
2021/02/26 07:13:32;;;;;;;0.50;0.50;;;;;;;9.76;46.73;98028.53;299395;205;63016;-55
2021/02/26 07:18:55;;;;;;;0.60;0.60;;;;;;;9.84;46.39;98036.19;299417;222;63009;-55
2021/02/26 07:24:01;;;;;;;0.50;0.50;;;;;;;9.79;47.34;98043.47;299395;362;63009;-57
2021/02/26 07:29:03;;;;;;;0.50;0.50;;;;;;;9.89;46.79;98041.66;299395;209;63009;-56
2021/02/26 07:34:13;;;;;;;0.50;0.50;;;;;;;10.05;46.45;98040.66;299395;223;63004;-55
2021/02/26 07:39:56;;;;;;;0.50;0.50;;;;;;;10.02;47.10;98051.25;299395;216;63009;-56
2021/02/26 07:44:58;;;;;;;0.50;0.50;;;;;;;10.06;47.92;98063.97;299395;238;63000;-56
2021/02/26 07:49:59;;;;;;;0.50;0.50;;;;;;;10.11;48.20;98055.06;299395;338;63008;-56
2021/02/26 07:55:01;;;;;;;0.50;0.50;;;;;;;10.17;48.51;98059.44;299395;226;63004;-58
2021/02/26 08:00:06;;;;;;;0.50;0.50;;;;;;;10.27;48.18;98058.75;299395;203;63009;-53
2021/02/26 08:05:10;;;;;;;0.50;0.50;;;;;;;10.37;48.70;98065.06;299395;214;63004;-53
2021/02/26 08:10:31;;;;;;;0.60;0.60;;;;;;;10.56;49.79;98067.31;299417;224;63019;-57
2021/02/26 08:15:39;;;;;;;0.50;0.50;;;;;;;10.62;49.71;98067.06;299374;228;63005;-56
2021/02/26 08:20:40;;;;;;;0.50;0.50;;;;;;;10.86;49.05;98061.19;299396;230;63009;-56
2021/02/26 08:25:41;;;;;;;0.50;0.50;;;;;;;11.04;48.90;98063.44;299396;199;63004;-55
2021/02/26 08:30:42;;;;;;;0.50;0.50;;;;;;;11.25;48.72;98059.66;299396;213;63009;-55
2021/02/26 08:35:42;;;;;;;0.60;0.60;;;;;;;11.53;48.11;98060.25;299396;212;63005;-57
2021/02/26 08:40:43;;;;;;;0.50;0.50;;;;;;;11.86;46.97;98057.03;299396;204;63009;-56
2021/02/26 08:45:44;;;;;;;0.50;0.50;;;;;;;12.10;45.66;98057.31;299396;233;63005;-57
2021/02/26 08:50:47;;;;;;;0.50;0.50;;;;;;;12.06;45.99;98054.31;299396;302;63008;-57
2021/02/26 08:55:48;;;;;;;1.15;1.15;;;;;;;11.80;46.04;98049.94;299396;228;63004;-57
2021/02/26 09:00:49;;;;;;;0.50;0.50;;;;;;;11.79;46.69;98051.03;299397;366;63005;-56
2021/02/26 09:05:50;;;;;;;0.50;0.50;;;;;;;11.91;46.34;98040.72;299397;252;63005;-57
2021/02/26 09:10:52;;;;;;;0.50;0.50;;;;;;;12.09;45.85;98036.63;299396;238;63009;-56
2021/02/26 09:15:56;;;;;;;0.50;0.50;;;;;;;11.96;46.40;98048.88;299396;240;63005;-58
2021/02/26 09:20:58;;;;;;;0.50;0.50;;;;;;;11.90;46.24;98044.53;299417;254;64009;-56
2021/02/26 09:26:05;;;;;;;0.50;0.50;;;;;;;12.02;46.42;98042.34;299396;207;63004;-57
2021/02/26 09:31:35;;;;;;;0.50;0.50;;;;;;;12.49;45.67;98043.84;299396;216;63009;-56
2021/02/26 09:36:46;;;;;;;0.50;0.50;;;;;;;12.74;46.12;98041.06;299396;272;63005;-56
2021/02/26 09:41:48;;;;;;;0.50;0.50;;;;;;;12.65;46.44;98044.63;299396;254;63009;-56
2021/02/26 09:46:51;;;;;;;0.50;0.50;;;;;;;12.54;47.00;98043.84;299396;228;63005;-56
2021/02/26 09:52:13;;;;;;;0.50;0.50;;;;;;;12.51;46.39;98041.66;299397;206;63009;-57
2021/02/26 09:57:30;;;;;;;0.50;0.50;;;;;;;12.37;46.97;98046.09;299397;217;63004;-55
2021/02/26 10:02:37;;;;;;;0.50;0.50;;;;;;;12.36;46.69;98063.50;299395;224;63009;-56
2021/02/26 10:07:44;;;;;;;0.60;0.60;;;;;;;12.46;47.08;98058.03;299395;213;63005;-56
2021/02/26 10:12:46;;;;;;;0.50;0.50;;;;;;;12.80;46.16;98051.94;299395;206;63009;-56
2021/02/26 10:17:54;;;;;;;0.50;0.50;;;;;;;13.08;44.88;98043.88;299395;369;63004;-53
2021/02/26 10:22:55;;;;;;;0.50;0.50;;;;;;;13.35;44.69;98043.47;299395;265;63009;-54
2021/02/26 10:27:56;;;;;;;0.50;0.50;;;;;;;13.51;43.75;98046.94;299395;229;63005;-58
2021/02/26 10:32:57;;;;;;;0.50;0.50;;;;;;;13.63;43.97;98049.28;299395;218;63009;-55
2021/02/26 10:37:58;;;;;;;0.50;0.50;;;;;;;13.33;44.30;98055.75;299395;249;63005;-56
2021/02/26 10:42:59;;;;;;;0.50;0.50;;;;;;;13.59;44.06;98056.41;299395;198;63009;-55
2021/02/26 10:48:01;;;;;;;0.50;0.50;;;;;;;13.45;45.31;98066.34;299395;236;63004;-56
2021/02/26 10:53:04;;;;;;;0.50;0.50;;;;;;;13.41;42.96;98069.62;299395;216;63009;-56
2021/02/26 10:58:05;;;;;;;0.50;0.50;;;;;;;13.31;44.32;98072.41;299394;224;63005;-56
2021/02/26 11:03:07;;;;;;;0.50;0.50;;;;;;;13.43;44.26;98061.16;299395;284;63009;-57
2021/02/26 11:08:08;;;;;;;0.50;0.50;;;;;;;13.51;44.25;98059.75;299395;242;63005;-58
2021/02/26 11:13:13;;;;;;;0.50;0.50;;;;;;;13.54;44.33;98059.16;299395;219;63009;-58
2021/02/26 11:18:15;;;;;;;0.50;0.50;;;;;;;13.45;44.91;98061.69;299395;251;63004;-58
2021/02/26 11:23:18;;;;;;;0.50;0.50;;;;;;;13.39;45.23;98054.62;299395;276;63009;-56
2021/02/26 11:28:20;;;;;;;0.50;0.50;;;;;;;13.63;44.27;98061.00;299395;221;63005;-57
2021/02/26 11:33:21;;;;;;;0.60;0.60;;;;;;;13.74;44.58;98068.03;299395;206;63009;-56
2021/02/26 11:38:23;;;;;;;0.50;0.50;;;;;;;13.72;44.30;98048.41;299395;227;63005;-57
2021/02/26 11:43:24;;;;;;;0.50;0.50;;;;;;;13.58;43.67;98057.50;299395;216;63009;-59
2021/02/26 11:48:25;;;;;;;0.50;0.50;;;;;;;13.19;45.05;98061.00;299395;218;63004;-58
2021/02/26 11:53:25;;;;;;;0.60;0.60;;;;;;;13.34;44.57;98051.94;299395;222;63009;-56
2021/02/26 11:58:27;;;;;;;0.60;0.60;;;;;;;13.19;45.38;98061.00;299395;222;63005;-58
2021/02/26 12:03:31;;;;;;;0.50;0.50;;;;;;;13.01;46.57;98067.09;299395;196;63009;-58
2021/02/26 12:08:32;;;;;;;0.50;0.50;;;;;;;13.25;45.42;98054.44;299417;198;63004;-56
2021/02/26 12:13:33;;;;;;;0.60;0.60;;;;;;;13.31;43.99;98045.13;299395;209;63009;-57
2021/02/26 12:18:34;;;;;;;0.50;0.50;;;;;;;13.07;45.03;98046.91;299395;214;63004;-57
2021/02/26 12:23:35;;;;;;;0.75;0.75;;;;;;;12.93;45.20;98056.75;299395;204;63009;-58
2021/02/26 12:28:36;;;;;;;0.50;0.50;;;;;;;12.83;45.44;98048.63;299395;362;63010;-59
2021/02/26 12:33:37;;;;;;;0.60;0.60;;;;;;;12.78;45.28;98037.78;299395;230;63008;-58
2021/02/26 12:38:38;;;;;;;0.50;0.50;;;;;;;12.60;46.35;98042.72;299395;300;63000;-57
2021/02/26 12:43:39;;;;;;;0.57;0.57;;;;;;;12.63;46.78;98031.28;299395;214;63009;-57
2021/02/26 12:48:40;;;;;;;0.50;0.50;;;;;;;12.97;45.76;98027.87;299395;271;63004;-60
2021/02/26 12:53:41;;;;;;;0.60;0.60;;;;;;;13.02;45.17;98025.94;299395;225;63009;-56
2021/02/26 12:58:43;;;;;;;0.50;0.50;;;;;;;12.91;45.70;98032.53;299395;225;63005;-55
2021/02/26 13:03:44;;;;;;;0.60;0.60;;;;;;;12.82;46.49;98041.59;299395;276;63008;-56
2021/02/26 13:08:46;;;;;;;0.50;0.50;;;;;;;12.81;46.95;98038.03;299395;248;63004;-55
2021/02/26 13:13:47;;;;;;;16.45;4.82;;;;;;;12.75;48.85;98050.87;299390;215;64009;-55
2021/02/26 13:18:49;;;;;;;0.50;0.50;;;;;;;12.59;50.19;98045.72;299395;279;63004;-54
2021/02/26 13:23:52;;;;;;;11.82;1.35;;;;;;;12.72;50.18;98056.84;299391;209;64004;-61
2021/02/26 13:28:52;;;;;;;1.25;1.25;;;;;;;12.39;51.01;98068.41;299395;263;63005;-56
2021/02/26 13:33:53;;;;;;;0.57;0.57;;;;;;;12.11;52.34;98071.72;299395;235;63009;-56
2021/02/26 13:39:00;;;;;;;0.82;0.82;;;;;;;11.67;54.51;98080.37;299395;199;63004;-60
2021/02/26 13:44:00;;;;;;;4.03;2.83;;;;;;;11.59;57.10;98080.91;299395;229;63009;-55
2021/02/26 13:49:02;;;;;;;0.88;0.88;;;;;;;11.45;58.96;98090.66;299395;206;63005;-56
2021/02/26 13:54:03;;;;;;;1.02;1.02;;;;;;;11.28;60.35;98080.06;299395;234;63009;-55
2021/02/26 13:59:09;;;;;;;1.50;1.40;;;;;;;11.38;61.05;98080.91;299395;223;63010;-55
2021/02/26 14:04:11;;;;;;;0.50;0.50;;;;;;;11.25;62.70;98081.41;299395;287;63009;-56
2021/02/26 14:09:12;;;;;;;0.77;0.77;;;;;;;11.24;62.76;98081.66;299395;231;63004;-56
2021/02/26 14:14:14;;;;;;;0.70;0.70;;;;;;;11.19;63.49;98074.31;299395;252;63009;-57
2021/02/26 14:19:15;;;;;;;1.48;1.37;;;;;;;11.06;64.85;98067.50;299395;232;63005;-57
2021/02/26 14:24:16;;;;;;;6.95;4.80;;;;;;;10.78;66.78;98075.25;299395;238;63009;-57
2021/02/26 14:29:18;;;;;;;3.50;3.20;;;;;;;10.43;68.20;98078.63;299395;314;63005;-58
2021/02/26 14:34:20;;;;;;;2.67;2.47;;;;;;;10.16;69.53;98076.00;299395;202;63009;-56
2021/02/26 14:39:21;;;;;;;0.60;0.60;;;;;;;10.05;70.20;98089.47;299395;225;63004;-57
2021/02/26 14:44:23;;;;;;;5.43;1.42;;;;;;;9.92;71.13;98081.78;299395;285;63009;-55
2021/02/26 14:49:26;;;;;;;1.92;1.83;;;;;;;9.73;71.85;98092.19;299395;221;63005;-56
2021/02/26 14:54:27;;;;;;;0.68;0.68;;;;;;;9.46;72.75;98102.25;299395;233;63009;-56
2021/02/26 14:59:28;;;;;;;1.05;1.05;;;;;;;9.44;72.72;98103.56;299395;222;63005;-56
2021/02/26 15:04:30;;;;;;;0.60;0.60;;;;;;;9.56;72.15;98101.53;299395;215;63009;-56
2021/02/26 15:09:31;;;;;;;1.00;1.00;;;;;;;9.56;72.25;98101.53;299395;203;63011;-56
2021/02/26 15:14:31;;;;;;;0.60;0.60;;;;;;;9.40;72.77;98114.91;299395;203;63009;-56
2021/02/26 15:19:33;;;;;;;0.65;0.65;;;;;;;9.22;73.89;98107.16;299395;239;63005;-55
2021/02/26 15:24:34;;;;;;;3.87;3.65;;;;;;;9.11;74.22;98121.66;299394;350;64008;-57
2021/02/26 15:29:40;;;;;;;2.05;1.83;;;;;;;8.69;75.42;98130.31;299395;202;63013;-54
2021/02/26 15:34:44;;;;;;;3.40;1.75;;;;;;;8.51;75.77;98121.69;299395;205;63009;-57
2021/02/26 15:39:46;;;;;;;1.00;1.00;;;;;;;8.41;75.88;98119.66;299417;372;63004;-56
2021/02/26 15:44:47;;;;;;;9.63;9.07;;;;;;;8.53;75.04;98124.97;299392;294;65009;-54
2021/02/26 15:49:52;;;;;;;1.90;1.58;;;;;;;8.34;75.09;98122.53;299395;205;63014;-57
2021/02/26 15:54:53;;;;;;;;;;;;;;;8.12;75.53;98135.16;299996;983;6004;-57
2021/02/26 15:59:54;;;;;;;1.25;1.23;;;;;;;8.01;75.43;98142.28;299400;275;63009;-55
2021/02/26 16:04:55;;;;;;;1.77;1.67;;;;;;;7.99;75.50;98141.72;299395;199;63005;-55
2021/02/26 16:09:57;;;;;;;1.05;0.95;;;;;;;7.95;75.62;98146.00;299395;271;63008;-55
2021/02/26 16:14:59;;;;;;;1.87;1.77;;;;;;;8.03;74.94;98155.56;299395;268;63004;-57
2021/02/26 16:20:00;;;;;;;2.15;1.95;;;;;;;7.85;75.25;98156.63;299395;332;63009;-55
2021/02/26 16:25:03;;;;;;;2.05;1.52;;;;;;;7.78;74.89;98161.34;299395;237;63019;-54
2021/02/26 16:30:10;;;;;;;0.77;0.77;;;;;;;7.80;74.30;98172.75;299395;318;63009;-55
2021/02/26 16:35:14;;;;;;;0.70;0.70;;;;;;;7.60;74.39;98170.50;299395;214;63005;-57
2021/02/26 16:40:15;;;;;;;;;;;;;;;7.48;74.70;98182.41;299996;983;6005;-55
2021/02/26 16:45:18;;;;;;;0.88;0.88;;;;;;;7.39;74.71;98180.09;299400;233;63009;-54
2021/02/26 16:50:24;;;;;;;1.30;1.30;;;;;;;7.33;74.91;98201.84;299395;227;63005;-54
2021/02/26 16:55:25;;;;;;;0.80;0.80;;;;;;;7.34;74.43;98207.00;299395;340;63009;-55
2021/02/26 17:00:28;;;;;;;0.70;0.70;;;;;;;7.22;74.61;98217.03;299395;198;63004;-55
2021/02/26 17:05:29;;;;;;;1.00;1.00;;;;;;;7.10;75.64;98224.31;299395;289;63009;-59
2021/02/26 17:10:32;;;;;;;0.70;0.70;;;;;;;7.16;75.33;98228.78;299395;210;63005;-54
2021/02/26 17:15:33;;;;;;;1.00;1.00;;;;;;;7.14;75.36;98224.66;299395;239;63009;-55
2021/02/26 17:20:34;;;;;;;0.60;0.60;;;;;;;7.04;75.27;98233.37;299395;203;63005;-55
2021/02/26 17:25:35;;;;;;;0.70;0.70;;;;;;;6.88;75.67;98237.62;299395;203;63009;-55
2021/02/26 17:30:36;;;;;;;0.70;0.70;;;;;;;6.96;75.22;98248.03;299394;215;64004;-55
2021/02/26 17:35:38;;;;;;;0.70;0.70;;;;;;;6.97;74.84;98256.94;299395;231;63009;-54
2021/02/26 17:40:39;;;;;;;0.70;0.70;;;;;;;6.90;74.81;98262.50;299395;284;63010;-54
2021/02/26 17:45:40;;;;;;;1.50;1.40;;;;;;;6.87;74.91;98271.06;299395;224;63009;-54
2021/02/26 17:50:41;;;;;;;0.75;0.75;;;;;;;6.76;75.05;98276.44;299395;214;63005;-56
2021/02/26 17:55:42;;;;;;;0.70;0.70;;;;;;;6.51;75.93;98272.09;299395;265;63009;-55
2021/02/26 18:00:43;;;;;;;0.62;0.62;;;;;;;6.51;75.87;98277.50;299395;254;63004;-56
2021/02/26 18:05:45;;;;;;;0.70;0.70;;;;;;;6.44;76.11;98295.66;299395;208;63009;-54
2021/02/26 18:10:47;;;;;;;0.75;0.75;;;;;;;6.44;76.30;98301.03;299395;238;63005;-55
2021/02/26 18:15:48;;;;;;;0.70;0.70;;;;;;;6.30;76.76;98302.28;299395;225;63009;-54
2021/02/26 18:20:50;;;;;;;0.60;0.60;;;;;;;6.24;77.04;98295.94;299395;235;63005;-54
2021/02/26 18:25:51;;;;;;;1.25;1.17;;;;;;;6.39;76.80;98314.41;299395;234;63009;-54
2021/02/26 18:30:52;;;;;;;1.50;1.40;;;;;;;6.30;76.81;98321.16;299395;242;63004;-56
2021/02/26 18:35:54;;;;;;;0.70;0.70;;;;;;;6.03;78.01;98329.66;299395;203;63009;-54
2021/02/26 18:40:57;;;;;;;1.35;0.98;;;;;;;6.14;77.18;98335.31;299395;216;63005;-56
2021/02/26 18:45:58;;;;;;;1.98;1.87;;;;;;;6.05;77.60;98334.81;299395;197;63008;-56
2021/02/26 18:50:59;;;;;;;1.40;1.30;;;;;;;5.86;78.27;98335.88;299395;263;63004;-57
2021/02/26 18:56:01;;;;;;;1.50;1.45;;;;;;;5.83;78.65;98331.75;299395;227;63009;-55
2021/02/26 19:01:02;;;;;;;0.80;0.80;;;;;;;5.71;79.29;98333.56;299395;204;63004;-55
2021/02/26 19:06:04;;;;;;;1.95;1.25;;;;;;;5.67;80.19;98343.97;299395;229;63009;-57
2021/02/26 19:11:05;;;;;;;0.70;0.70;;;;;;;5.62;80.74;98340.31;299395;262;63005;-54
2021/02/26 19:16:06;;;;;;;0.77;0.77;;;;;;;5.67;80.25;98345.84;299395;264;63008;-56
2021/02/26 19:21:07;;;;;;;1.45;1.45;;;;;;;5.62;80.84;98334.91;299395;198;63004;-54
2021/02/26 19:26:08;;;;;;;0.70;0.70;;;;;;;5.46;81.79;98347.13;299395;215;63009;-58
2021/02/26 19:31:10;;;;;;;0.80;0.80;;;;;;;5.50;81.53;98350.19;299395;207;63004;-56
2021/02/26 19:36:11;;;;;;;0.70;0.70;;;;;;;5.37;82.34;98349.28;299395;214;63009;-55
2021/02/26 19:41:12;;;;;;;0.70;0.70;;;;;;;5.27;83.48;98354.34;299395;200;63005;-56
2021/02/26 19:46:13;;;;;;;0.75;0.75;;;;;;;5.64;81.37;98367.81;299395;230;63008;-55
2021/02/26 19:51:14;;;;;;;1.65;1.62;;;;;;;5.33;82.75;98369.63;299395;202;63004;-55
2021/02/26 19:56:15;;;;;;;0.90;0.90;;;;;;;5.52;81.92;98369.66;299395;226;63009;-55
2021/02/26 20:01:16;;;;;;;0.70;0.70;;;;;;;5.34;81.75;98379.34;299395;257;63005;-55
2021/02/26 20:06:17;;;;;;;0.70;0.70;;;;;;;5.41;81.16;98391.91;299395;222;63009;-56
2021/02/26 20:11:20;;;;;;;1.05;1.05;;;;;;;5.41;80.79;98397.31;299395;288;63005;-59
2021/02/26 20:16:21;;;;;;;0.70;0.70;;;;;;;5.36;80.96;98406.84;299395;199;63009;-55
2021/02/26 20:21:22;;;;;;;0.75;0.75;;;;;;;5.28;81.06;98415.22;299395;249;63004;-57
2021/02/26 20:26:24;;;;;;;0.70;0.70;;;;;;;5.27;81.20;98412.75;299395;198;63009;-55
2021/02/26 20:31:25;;;;;;;0.70;0.70;;;;;;;5.24;82.29;98419.38;299395;214;63005;-55
2021/02/26 20:36:26;;;;;;;0.70;0.70;;;;;;;5.33;81.42;98428.84;299395;225;63009;-55
2021/02/26 20:41:27;;;;;;;0.90;0.90;;;;;;;5.31;80.78;98438.19;299395;250;63005;-55
2021/02/26 20:46:29;;;;;;;0.68;0.68;;;;;;;5.45;79.40;98436.19;299395;229;63009;-55
2021/02/26 20:51:30;;;;;;;0.70;0.70;;;;;;;5.25;81.05;98447.13;299396;209;63004;-54
2021/02/26 20:56:31;;;;;;;0.60;0.60;;;;;;;5.30;80.37;98453.50;299396;197;63009;-55
2021/02/26 21:01:33;;;;;;;0.85;0.85;;;;;;;5.35;80.09;98464.44;299395;202;64005;-55
2021/02/26 21:06:34;;;;;;;0.70;0.70;;;;;;;5.53;78.61;98460.97;299396;217;63009;-55
2021/02/26 21:11:36;;;;;;;0.60;0.60;;;;;;;5.26;80.23;98465.75;299396;210;63000;-55
2021/02/26 21:16:37;;;;;;;0.70;0.70;;;;;;;5.35;79.98;98469.00;299396;199;63021;-55
2021/02/26 21:21:39;;;;;;;0.65;0.65;;;;;;;5.30;80.12;98466.97;299396;213;63004;-55
2021/02/26 21:26:40;;;;;;;0.60;0.60;;;;;;;5.32;80.29;98470.25;299396;297;63016;-55
2021/02/26 21:31:41;;;;;;;0.70;0.70;;;;;;;5.52;78.41;98478.16;299396;197;63005;-55
2021/02/26 21:36:45;;;;;;;0.70;0.70;;;;;;;5.39;79.18;98471.03;299397;210;63008;-54
2021/02/26 21:41:46;;;;;;;;;;;;;;;5.37;79.06;98465.03;299997;982;6000;-54
2021/02/26 21:46:47;;;;;;;0.70;0.70;;;;;;;5.46;78.71;98473.66;299400;197;63005;-54
2021/02/26 21:51:48;;;;;;;2.75;1.20;;;;;;;5.49;78.40;98470.53;299396;213;63008;-55
2021/02/26 21:56:49;;;;;;;0.70;0.70;;;;;;;5.25;79.47;98463.28;299396;214;63004;-55
2021/02/26 22:01:50;;;;;;;0.70;0.70;;;;;;;5.52;78.04;98461.19;299396;223;63018;-55
2021/02/26 22:06:51;;;;;;;0.60;0.60;;;;;;;5.47;77.62;98464.53;299396;235;63004;-54
2021/02/26 22:11:52;;;;;;;0.70;0.70;;;;;;;5.48;76.50;98462.66;299396;196;63009;-55
2021/02/26 22:16:53;;;;;;;0.70;0.70;;;;;;;5.58;75.42;98453.00;299396;204;63017;-54
2021/02/26 22:21:54;;;;;;;0.70;0.70;;;;;;;5.39;76.65;98470.19;299396;215;63008;-55
2021/02/26 22:26:54;;;;;;;0.70;0.70;;;;;;;5.47;75.75;98469.91;299397;214;63004;-54
2021/02/26 22:31:55;;;;;;;0.70;0.70;;;;;;;5.35;75.80;98475.19;299397;237;63009;-54
2021/02/26 22:36:58;;;;;;;0.70;0.70;;;;;;;5.32;75.94;98478.31;299395;226;63004;-55
2021/02/26 22:42:00;;;;;;;0.70;0.70;;;;;;;4.92;77.38;98469.75;299395;200;63009;-55
2021/02/26 22:47:04;;;;;;;0.70;0.70;;;;;;;4.85;78.94;98484.31;299395;202;63005;-55
2021/02/26 22:52:05;;;;;;;0.70;0.70;;;;;;;4.90;78.43;98489.84;299417;215;63008;-54
2021/02/26 22:57:06;;;;;;;0.70;0.70;;;;;;;5.04;77.13;98483.31;299395;218;63009;-55
2021/02/26 23:02:07;;;;;;;0.70;0.70;;;;;;;5.02;76.84;98480.84;299395;197;63009;-55
2021/02/26 23:07:08;;;;;;;0.70;0.70;;;;;;;4.92;77.03;98487.75;299395;226;63000;-55
2021/02/26 23:12:13;;;;;;;0.70;0.70;;;;;;;4.74;77.51;98487.69;299395;218;63009;-55
2021/02/26 23:17:14;;;;;;;0.70;0.70;;;;;;;4.85;76.86;98490.47;299417;200;63005;-55
2021/02/26 23:22:26;;;;;;;0.70;0.70;;;;;;;4.60;77.71;98495.81;299394;296;64008;-55
2021/02/26 23:27:28;;;;;;;0.70;0.70;;;;;;;4.34;78.83;98496.78;299395;202;63004;-54
2021/02/26 23:32:29;;;;;;;0.70;0.70;;;;;;;4.46;79.21;98513.06;299395;223;63009;-54
2021/02/26 23:37:31;;;;;;;0.70;0.70;;;;;;;4.38;78.37;98510.62;299395;240;63005;-55
2021/02/26 23:42:36;;;;;;;1.00;1.00;;;;;;;4.10;79.46;98513.63;299395;196;63009;-54
2021/02/26 23:47:36;;;;;;;0.70;0.70;;;;;;;4.12;79.82;98521.47;299417;213;63005;-54
2021/02/26 23:52:39;;;;;;;0.70;0.70;;;;;;;4.15;79.80;98534.50;299395;210;63009;-54
2021/02/26 23:57:40;;;;;;;0.70;0.70;;;;;;;4.05;80.14;98526.88;299395;220;63004;-55
